sensor_id;sensor_type;location;lat;lon;timestamp;pressure;altitude;pressure_sealevel;temperature;humidity
48041;BME280;33815;48.386;11.738;2023-07-09T00:02:11;96940.88;;;15.30;100.00
48041;BME280;33815;48.386;11.738;2023-07-09T00:04:37;96941.06;;;15.29;100.00
48041;BME280;33815;48.386;11.738;2023-07-09T00:07:03;96935.19;;;15.27;100.00
48041;BME280;33815;48.386;11.738;2023-07-09T00:09:29;96936.69;;;15.21;100.00
48041;BME280;33815;48.386;11.738;2023-07-09T00:11:55;96938.19;;;15.15;100.00
48041;BME280;33815;48.386;11.738;2023-07-09T00:14:21;96940.13;;;15.13;100.00
48041;BME280;33815;48.386;11.738;2023-07-09T00:16:46;96940.03;;;15.06;100.00
48041;BME280;33815;48.386;11.738;2023-07-09T00:19:21;96936.91;;;15.03;100.00
48041;BME280;33815;48.386;11.738;2023-07-09T00:21:49;96934.47;;;14.93;100.00
48041;BME280;33815;48.386;11.738;2023-07-09T00:24:18;96935.63;;;14.90;100.00
48041;BME280;33815;48.386;11.738;2023-07-09T00:26:44;96907.81;;;14.73;100.00
48041;BME280;33815;48.386;11.738;2023-07-09T00:29:11;96931.69;;;14.95;100.00
48041;BME280;33815;48.386;11.738;2023-07-09T00:31:37;96907.81;;;14.73;100.00
48041;BME280;33815;48.386;11.738;2023-07-09T00:34:10;96941.72;;;14.91;100.00
48041;BME280;33815;48.386;11.738;2023-07-09T00:36:39;96945.00;;;14.85;100.00
48041;BME280;33815;48.386;11.738;2023-07-09T00:39:14;96911.91;;;14.59;100.00
48041;BME280;33815;48.386;11.738;2023-07-09T00:41:40;96945.19;;;14.75;100.00
48041;BME280;33815;48.386;11.738;2023-07-09T00:44:26;96951.75;;;14.71;100.00
48041;BME280;33815;48.386;11.738;2023-07-09T00:49:40;96940.94;;;14.57;100.00
48041;BME280;33815;48.386;11.738;2023-07-09T00:52:28;96948.97;;;14.64;100.00
48041;BME280;33815;48.386;11.738;2023-07-09T00:54:59;96949.97;;;14.63;100.00
48041;BME280;33815;48.386;11.738;2023-07-09T00:57:26;96947.63;;;14.60;100.00
48041;BME280;33815;48.386;11.738;2023-07-09T00:59:58;96944.53;;;14.56;100.00
48041;BME280;33815;48.386;11.738;2023-07-09T01:02:25;96954.03;;;14.57;100.00
48041;BME280;33815;48.386;11.738;2023-07-09T01:04:55;96958.78;;;14.54;100.00
48041;BME280;33815;48.386;11.738;2023-07-09T01:07:26;96961.91;;;14.49;100.00
48041;BME280;33815;48.386;11.738;2023-07-09T01:09:51;96962.25;;;14.46;100.00
48041;BME280;33815;48.386;11.738;2023-07-09T01:12:18;96932.75;;;14.19;100.00
48041;BME280;33815;48.386;11.738;2023-07-09T01:14:45;96961.41;;;14.37;100.00
48041;BME280;33815;48.386;11.738;2023-07-09T01:17:13;96962.91;;;14.40;100.00
48041;BME280;33815;48.386;11.738;2023-07-09T01:19:42;96968.97;;;14.41;100.00
48041;BME280;33815;48.386;11.738;2023-07-09T01:22:13;96967.00;;;14.34;100.00
48041;BME280;33815;48.386;11.738;2023-07-09T01:25:01;96973.38;;;14.32;100.00
48041;BME280;33815;48.386;11.738;2023-07-09T01:27:32;96970.28;;;14.28;100.00
48041;BME280;33815;48.386;11.738;2023-07-09T01:30:05;96977.66;;;14.25;100.00
48041;BME280;33815;48.386;11.738;2023-07-09T01:32:31;96970.75;;;14.23;100.00
48041;BME280;33815;48.386;11.738;2023-07-09T01:34:58;96975.69;;;14.27;100.00
48041;BME280;33815;48.386;11.738;2023-07-09T01:37:30;96972.56;;;14.23;100.00
48041;BME280;33815;48.386;11.738;2023-07-09T01:39:56;96976.16;;;14.22;100.00
48041;BME280;33815;48.386;11.738;2023-07-09T01:42:22;96976.00;;;14.23;100.00
48041;BME280;33815;48.386;11.738;2023-07-09T01:44:49;96973.38;;;14.23;100.00
48041;BME280;33815;48.386;11.738;2023-07-09T01:47:16;96944.56;;;13.99;100.00
48041;BME280;33815;48.386;11.738;2023-07-09T01:49:42;96971.09;;;14.20;100.00
48041;BME280;33815;48.386;11.738;2023-07-09T01:52:11;96968.47;;;14.12;100.00
48041;BME280;33815;48.386;11.738;2023-07-09T01:54:37;96977.47;;;14.10;100.00
48041;BME280;33815;48.386;11.738;2023-07-09T01:57:19;96970.78;;;14.07;100.00
48041;BME280;33815;48.386;11.738;2023-07-09T01:59:48;96970.09;;;14.05;100.00
48041;BME280;33815;48.386;11.738;2023-07-09T02:02:13;96976.66;;;14.01;100.00
48041;BME280;33815;48.386;11.738;2023-07-09T02:04:47;96978.78;;;13.97;100.00
48041;BME280;33815;48.386;11.738;2023-07-09T02:07:13;96978.97;;;13.96;100.00
48041;BME280;33815;48.386;11.738;2023-07-09T02:09:39;96981.72;;;13.94;100.00
48041;BME280;33815;48.386;11.738;2023-07-09T02:12:04;96978.94;;;13.87;100.00
48041;BME280;33815;48.386;11.738;2023-07-09T02:14:30;96988.09;;;13.83;100.00
48041;BME280;33815;48.386;11.738;2023-07-09T02:16:55;96978.91;;;13.79;100.00
48041;BME280;33815;48.386;11.738;2023-07-09T02:19:20;96973.34;;;13.74;100.00
48041;BME280;33815;48.386;11.738;2023-07-09T02:21:45;96980.22;;;13.75;100.00
48041;BME280;33815;48.386;11.738;2023-07-09T02:24:11;96984.47;;;13.76;100.00
48041;BME280;33815;48.386;11.738;2023-07-09T02:26:36;96975.78;;;13.76;100.00
48041;BME280;33815;48.386;11.738;2023-07-09T02:29:01;96948.09;;;13.57;100.00
48041;BME280;33815;48.386;11.738;2023-07-09T02:31:27;96986.44;;;13.74;100.00
48041;BME280;33815;48.386;11.738;2023-07-09T02:33:55;96988.41;;;13.72;100.00
48041;BME280;33815;48.386;11.738;2023-07-09T02:36:20;96991.00;;;13.64;100.00
48041;BME280;33815;48.386;11.738;2023-07-09T02:38:45;96992.94;;;13.62;100.00
48041;BME280;33815;48.386;11.738;2023-07-09T02:41:11;96988.03;;;13.59;100.00
48041;BME280;33815;48.386;11.738;2023-07-09T02:43:36;96998.81;;;13.56;100.00
48041;BME280;33815;48.386;11.738;2023-07-09T02:46:01;96996.38;;;13.54;100.00
48041;BME280;33815;48.386;11.738;2023-07-09T02:48:26;96998.47;;;13.50;100.00
48041;BME280;33815;48.386;11.738;2023-07-09T02:50:52;97000.88;;;13.44;100.00
48041;BME280;33815;48.386;11.738;2023-07-09T02:53:17;97004.19;;;13.46;100.00
48041;BME280;33815;48.386;11.738;2023-07-09T02:55:42;96970.53;;;13.25;100.00
48041;BME280;33815;48.386;11.738;2023-07-09T02:58:07;97006.13;;;13.44;100.00
48041;BME280;33815;48.386;11.738;2023-07-09T03:00:33;97005.00;;;13.46;100.00
48041;BME280;33815;48.386;11.738;2023-07-09T03:02:58;97016.78;;;13.50;100.00
48041;BME280;33815;48.386;11.738;2023-07-09T03:05:23;97010.72;;;13.42;100.00
48041;BME280;33815;48.386;11.738;2023-07-09T03:07:49;97018.06;;;13.38;100.00
48041;BME280;33815;48.386;11.738;2023-07-09T03:10:14;97009.75;;;13.43;100.00
48041;BME280;33815;48.386;11.738;2023-07-09T03:12:39;97008.09;;;13.42;100.00
48041;BME280;33815;48.386;11.738;2023-07-09T03:15:05;97008.41;;;13.39;100.00
48041;BME280;33815;48.386;11.738;2023-07-09T03:17:30;97004.66;;;13.41;100.00
48041;BME280;33815;48.386;11.738;2023-07-09T03:19:56;97004.31;;;13.36;100.00
48041;BME280;33815;48.386;11.738;2023-07-09T03:22:21;96995.91;;;13.24;100.00
48041;BME280;33815;48.386;11.738;2023-07-09T03:24:46;97009.53;;;13.36;100.00
48041;BME280;33815;48.386;11.738;2023-07-09T03:27:11;97018.38;;;13.35;100.00
48041;BME280;33815;48.386;11.738;2023-07-09T03:29:37;97025.25;;;13.36;100.00
48041;BME280;33815;48.386;11.738;2023-07-09T03:32:02;97020.31;;;13.33;100.00
48041;BME280;33815;48.386;11.738;2023-07-09T03:34:27;97022.41;;;13.29;100.00
48041;BME280;33815;48.386;11.738;2023-07-09T03:36:53;97022.72;;;13.26;100.00
48041;BME280;33815;48.386;11.738;2023-07-09T03:39:18;97024.53;;;13.26;100.00
48041;BME280;33815;48.386;11.738;2023-07-09T03:41:43;97028.13;;;13.25;100.00
48041;BME280;33815;48.386;11.738;2023-07-09T03:44:08;97029.09;;;13.24;100.00
48041;BME280;33815;48.386;11.738;2023-07-09T03:46:34;97029.81;;;13.34;100.00
48041;BME280;33815;48.386;11.738;2023-07-09T03:48:59;97031.31;;;13.36;100.00
48041;BME280;33815;48.386;11.738;2023-07-09T03:51:25;97032.44;;;13.34;100.00
48041;BME280;33815;48.386;11.738;2023-07-09T03:53:50;97036.00;;;13.33;100.00
48041;BME280;33815;48.386;11.738;2023-07-09T03:56:15;97033.09;;;13.36;100.00
48041;BME280;33815;48.386;11.738;2023-07-09T03:58:40;97038.03;;;13.39;100.00
48041;BME280;33815;48.386;11.738;2023-07-09T04:01:06;97028.88;;;13.43;100.00
48041;BME280;33815;48.386;11.738;2023-07-09T04:03:32;97028.28;;;13.49;100.00
48041;BME280;33815;48.386;11.738;2023-07-09T04:05:57;97028.59;;;13.54;100.00
48041;BME280;33815;48.386;11.738;2023-07-09T04:08:22;97030.44;;;13.62;100.00
48041;BME280;33815;48.386;11.738;2023-07-09T04:10:47;97034.22;;;13.68;100.00
48041;BME280;33815;48.386;11.738;2023-07-09T04:13:13;97026.22;;;13.69;100.00
48041;BME280;33815;48.386;11.738;2023-07-09T04:15:38;97028.66;;;13.71;100.00
48041;BME280;33815;48.386;11.738;2023-07-09T04:18:04;97027.22;;;13.77;100.00
48041;BME280;33815;48.386;11.738;2023-07-09T04:20:29;97030.63;;;13.77;100.00
48041;BME280;33815;48.386;11.738;2023-07-09T04:22:54;97023.13;;;13.82;100.00
48041;BME280;33815;48.386;11.738;2023-07-09T04:25:20;97031.19;;;13.89;100.00
48041;BME280;33815;48.386;11.738;2023-07-09T04:27:45;97032.00;;;13.98;100.00
48041;BME280;33815;48.386;11.738;2023-07-09T04:30:13;97031.22;;;14.05;100.00
48041;BME280;33815;48.386;11.738;2023-07-09T04:32:39;97037.13;;;14.16;100.00
48041;BME280;33815;48.386;11.738;2023-07-09T04:35:05;97039.09;;;14.22;100.00
48041;BME280;33815;48.386;11.738;2023-07-09T04:37:34;97039.44;;;14.27;100.00
48041;BME280;33815;48.386;11.738;2023-07-09T04:39:59;97037.00;;;14.34;100.00
48041;BME280;33815;48.386;11.738;2023-07-09T04:42:24;97040.09;;;14.37;100.00
48041;BME280;33815;48.386;11.738;2023-07-09T04:44:50;97037.47;;;14.46;100.00
48041;BME280;33815;48.386;11.738;2023-07-09T04:47:15;97034.84;;;14.54;100.00
48041;BME280;33815;48.386;11.738;2023-07-09T04:49:40;97040.94;;;14.63;100.00
48041;BME280;33815;48.386;11.738;2023-07-09T04:52:07;97034.72;;;14.72;100.00
48041;BME280;33815;48.386;11.738;2023-07-09T04:54:36;97038.81;;;14.83;100.00
48041;BME280;33815;48.386;11.738;2023-07-09T04:57:01;97005.19;;;14.78;100.00
48041;BME280;33815;48.386;11.738;2023-07-09T04:59:27;97039.44;;;15.10;100.00
48041;BME280;33815;48.386;11.738;2023-07-09T05:01:52;97034.00;;;15.19;100.00
48041;BME280;33815;48.386;11.738;2023-07-09T05:04:17;97038.72;;;15.32;100.00
48041;BME280;33815;48.386;11.738;2023-07-09T05:06:43;97042.63;;;15.45;100.00
48041;BME280;33815;48.386;11.738;2023-07-09T05:09:08;97042.44;;;15.54;100.00
48041;BME280;33815;48.386;11.738;2023-07-09T05:11:35;97041.88;;;15.67;100.00
48041;BME280;33815;48.386;11.738;2023-07-09T05:14:01;97039.84;;;15.86;100.00
48041;BME280;33815;48.386;11.738;2023-07-09T05:16:26;97043.38;;;16.01;100.00
48041;BME280;33815;48.386;11.738;2023-07-09T05:18:51;97045.19;;;16.24;100.00
48041;BME280;33815;48.386;11.738;2023-07-09T05:21:17;97049.06;;;16.36;100.00
48041;BME280;33815;48.386;11.738;2023-07-09T05:23:42;97049.56;;;16.40;100.00
48041;BME280;33815;48.386;11.738;2023-07-09T05:26:09;97057.28;;;16.56;100.00
48041;BME280;33815;48.386;11.738;2023-07-09T05:28:34;97054.97;;;16.61;100.00
48041;BME280;33815;48.386;11.738;2023-07-09T05:30:59;97039.13;;;16.70;100.00
48041;BME280;33815;48.386;11.738;2023-07-09T05:33:25;97055.28;;;16.82;100.00
48041;BME280;33815;48.386;11.738;2023-07-09T05:35:50;97052.44;;;16.91;100.00
48041;BME280;33815;48.386;11.738;2023-07-09T05:38:15;97054.03;;;17.16;100.00
48041;BME280;33815;48.386;11.738;2023-07-09T05:40:41;97060.19;;;17.38;100.00
48041;BME280;33815;48.386;11.738;2023-07-09T05:43:07;97063.56;;;17.61;100.00
48041;BME280;33815;48.386;11.738;2023-07-09T05:45:33;97063.38;;;17.78;100.00
48041;BME280;33815;48.386;11.738;2023-07-09T05:47:59;97061.75;;;17.92;100.00
48041;BME280;33815;48.386;11.738;2023-07-09T05:50:25;97061.72;;;18.07;100.00
48041;BME280;33815;48.386;11.738;2023-07-09T05:52:51;97063.69;;;18.20;100.00
48041;BME280;33815;48.386;11.738;2023-07-09T05:55:17;97064.19;;;18.30;100.00
48041;BME280;33815;48.386;11.738;2023-07-09T05:57:42;97070.03;;;18.47;100.00
48041;BME280;33815;48.386;11.738;2023-07-09T06:00:08;97068.28;;;18.54;100.00
48041;BME280;33815;48.386;11.738;2023-07-09T06:02:34;97077.97;;;18.69;100.00
48041;BME280;33815;48.386;11.738;2023-07-09T06:04:59;97063.41;;;18.79;100.00
48041;BME280;33815;48.386;11.738;2023-07-09T06:07:25;97069.25;;;18.90;100.00
48041;BME280;33815;48.386;11.738;2023-07-09T06:09:50;97073.16;;;19.00;100.00
48041;BME280;33815;48.386;11.738;2023-07-09T06:12:16;97068.38;;;19.11;100.00
48041;BME280;33815;48.386;11.738;2023-07-09T06:14:44;97075.19;;;19.27;100.00
48041;BME280;33815;48.386;11.738;2023-07-09T06:17:10;97078.34;;;19.44;100.00
48041;BME280;33815;48.386;11.738;2023-07-09T06:19:35;97074.53;;;19.53;100.00
48041;BME280;33815;48.386;11.738;2023-07-09T06:22:00;97083.38;;;19.67;100.00
48041;BME280;33815;48.386;11.738;2023-07-09T06:24:26;97073.00;;;19.72;100.00
48041;BME280;33815;48.386;11.738;2023-07-09T06:26:51;97078.81;;;19.89;98.73
48041;BME280;33815;48.386;11.738;2023-07-09T06:29:16;97075.59;;;20.07;97.00
48041;BME280;33815;48.386;11.738;2023-07-09T06:31:41;97079.34;;;20.26;95.87
48041;BME280;33815;48.386;11.738;2023-07-09T06:34:08;97076.53;;;20.41;95.57
48041;BME280;33815;48.386;11.738;2023-07-09T06:36:34;97079.41;;;20.53;94.47
48041;BME280;33815;48.386;11.738;2023-07-09T06:38:59;97071.69;;;20.65;93.23
48041;BME280;33815;48.386;11.738;2023-07-09T06:41:25;97072.72;;;20.84;92.03
48041;BME280;33815;48.386;11.738;2023-07-09T06:43:50;97079.25;;;21.08;90.30
48041;BME280;33815;48.386;11.738;2023-07-09T06:46:18;97078.44;;;21.21;88.67
48041;BME280;33815;48.386;11.738;2023-07-09T06:48:44;97078.63;;;21.26;88.12
48041;BME280;33815;48.386;11.738;2023-07-09T06:51:09;97077.97;;;21.44;87.75
48041;BME280;33815;48.386;11.738;2023-07-09T06:53:34;97083.09;;;21.59;85.34
48041;BME280;33815;48.386;11.738;2023-07-09T06:56:00;97077.13;;;21.77;85.31
48041;BME280;33815;48.386;11.738;2023-07-09T06:58:27;97073.88;;;21.68;85.23
48041;BME280;33815;48.386;11.738;2023-07-09T07:00:54;97078.13;;;21.83;84.82
48041;BME280;33815;48.386;11.738;2023-07-09T07:03:21;97075.25;;;21.91;85.44
48041;BME280;33815;48.386;11.738;2023-07-09T07:05:48;97075.34;;;22.10;83.21
48041;BME280;33815;48.386;11.738;2023-07-09T07:08:15;97076.31;;;22.22;83.13
48041;BME280;33815;48.386;11.738;2023-07-09T07:10:41;97071.28;;;22.46;81.80
48041;BME280;33815;48.386;11.738;2023-07-09T07:13:06;97069.34;;;22.59;79.38
48041;BME280;33815;48.386;11.738;2023-07-09T07:15:32;97068.75;;;22.64;77.04
48041;BME280;33815;48.386;11.738;2023-07-09T07:17:57;97065.81;;;22.72;76.15
48041;BME280;33815;48.386;11.738;2023-07-09T07:20:22;97061.66;;;22.76;77.69
48041;BME280;33815;48.386;11.738;2023-07-09T07:22:48;97067.88;;;22.96;77.66
48041;BME280;33815;48.386;11.738;2023-07-09T07:25:14;97040.78;;;23.12;73.59
48041;BME280;33815;48.386;11.738;2023-07-09T07:27:39;97062.28;;;23.29;73.54
48041;BME280;33815;48.386;11.738;2023-07-09T07:30:06;97062.75;;;23.44;71.07
48041;BME280;33815;48.386;11.738;2023-07-09T07:32:36;97060.81;;;23.52;70.45
48041;BME280;33815;48.386;11.738;2023-07-09T07:35:02;97032.47;;;23.46;69.38
48041;BME280;33815;48.386;11.738;2023-07-09T07:37:27;97058.16;;;23.70;69.07
48041;BME280;33815;48.386;11.738;2023-07-09T07:39:53;97057.41;;;23.82;68.48
48041;BME280;33815;48.386;11.738;2023-07-09T07:42:18;97051.06;;;24.01;69.22
48041;BME280;33815;48.386;11.738;2023-07-09T07:44:44;97060.94;;;24.12;70.86
48041;BME280;33815;48.386;11.738;2023-07-09T07:47:10;97057.09;;;24.27;67.23
48041;BME280;33815;48.386;11.738;2023-07-09T07:49:37;97051.44;;;24.35;68.16
48041;BME280;33815;48.386;11.738;2023-07-09T07:52:02;97057.75;;;24.53;66.75
48041;BME280;33815;48.386;11.738;2023-07-09T07:54:29;97050.94;;;24.69;65.52
48041;BME280;33815;48.386;11.738;2023-07-09T07:56:55;97051.81;;;24.93;63.51
48041;BME280;33815;48.386;11.738;2023-07-09T07:59:20;97050.53;;;25.07;61.03
48041;BME280;33815;48.386;11.738;2023-07-09T08:01:45;97024.69;;;25.20;59.99
48041;BME280;33815;48.386;11.738;2023-07-09T08:04:11;97045.44;;;25.53;59.27
48041;BME280;33815;48.386;11.738;2023-07-09T08:06:36;97046.91;;;25.73;59.14
48041;BME280;33815;48.386;11.738;2023-07-09T08:09:01;97039.22;;;25.88;55.76
48041;BME280;33815;48.386;11.738;2023-07-09T08:11:27;97044.06;;;26.03;56.31
48041;BME280;33815;48.386;11.738;2023-07-09T08:13:54;97035.09;;;26.09;56.75
48041;BME280;33815;48.386;11.738;2023-07-09T08:16:20;97036.00;;;26.15;55.19
48041;BME280;33815;48.386;11.738;2023-07-09T08:18:45;97041.25;;;26.39;55.72
48041;BME280;33815;48.386;11.738;2023-07-09T08:21:11;97028.38;;;26.53;55.18
48041;BME280;33815;48.386;11.738;2023-07-09T08:23:36;97028.84;;;26.66;54.24
48041;BME280;33815;48.386;11.738;2023-07-09T08:26:02;97018.75;;;27.02;53.73
48041;BME280;33815;48.386;11.738;2023-07-09T08:28:32;97012.31;;;27.38;51.02
48041;BME280;33815;48.386;11.738;2023-07-09T08:30:57;97014.75;;;27.61;50.07
48041;BME280;33815;48.386;11.738;2023-07-09T08:33:23;97006.28;;;27.69;49.56
48041;BME280;33815;48.386;11.738;2023-07-09T08:35:50;97001.25;;;28.55;48.13
48041;BME280;33815;48.386;11.738;2023-07-09T08:38:16;97003.13;;;29.25;47.84
48041;BME280;33815;48.386;11.738;2023-07-09T08:40:43;96990.19;;;29.74;44.20
48041;BME280;33815;48.386;11.738;2023-07-09T08:43:41;96979.50;;;30.00;42.69
48041;BME280;33815;48.386;11.738;2023-07-09T08:46:20;96988.22;;;30.64;42.51
48041;BME280;33815;48.386;11.738;2023-07-09T08:48:52;96958.31;;;31.02;39.80
48041;BME280;33815;48.386;11.738;2023-07-09T08:51:37;96975.09;;;32.14;39.43
48041;BME280;33815;48.386;11.738;2023-07-09T08:54:09;96963.38;;;32.69;36.04
48041;BME280;33815;48.386;11.738;2023-07-09T08:56:38;96959.63;;;33.42;34.62
48041;BME280;33815;48.386;11.738;2023-07-09T08:59:03;96958.56;;;33.62;33.50
48041;BME280;33815;48.386;11.738;2023-07-09T09:01:35;96957.34;;;33.74;34.13
48041;BME280;33815;48.386;11.738;2023-07-09T09:04:22;96967.69;;;33.91;31.62
48041;BME280;33815;48.386;11.738;2023-07-09T09:06:57;96970.91;;;33.69;32.75
48041;BME280;33815;48.386;11.738;2023-07-09T09:09:38;96975.78;;;33.91;31.08
48041;BME280;33815;48.386;11.738;2023-07-09T09:12:21;96963.84;;;34.11;31.50
48041;BME280;33815;48.386;11.738;2023-07-09T09:14:57;96976.34;;;34.45;31.14
48041;BME280;33815;48.386;11.738;2023-07-09T09:17:23;96975.59;;;34.58;28.84
48041;BME280;33815;48.386;11.738;2023-07-09T09:19:56;96973.44;;;34.41;28.18
48041;BME280;33815;48.386;11.738;2023-07-09T09:22:42;96980.16;;;34.25;30.19
48041;BME280;33815;48.386;11.738;2023-07-09T09:27:39;96982.44;;;33.55;30.68
48041;BME280;33815;48.386;11.738;2023-07-09T09:30:09;96975.13;;;33.32;31.02
48041;BME280;33815;48.386;11.738;2023-07-09T09:32:43;96979.81;;;33.50;30.29
48041;BME280;33815;48.386;11.738;2023-07-09T09:35:17;96978.88;;;33.36;29.43
48041;BME280;33815;48.386;11.738;2023-07-09T09:37:53;96982.88;;;33.14;30.77
48041;BME280;33815;48.386;11.738;2023-07-09T09:40:20;96991.09;;;33.33;30.97
48041;BME280;33815;48.386;11.738;2023-07-09T09:42:52;96991.50;;;33.16;30.87
48041;BME280;33815;48.386;11.738;2023-07-09T09:45:24;96981.25;;;33.13;29.90
48041;BME280;33815;48.386;11.738;2023-07-09T09:47:49;96981.06;;;32.80;29.91
48041;BME280;33815;48.386;11.738;2023-07-09T09:50:20;96990.34;;;33.27;31.04
48041;BME280;33815;48.386;11.738;2023-07-09T09:52:47;96968.56;;;33.43;30.36
48041;BME280;33815;48.386;11.738;2023-07-09T09:55:25;96979.63;;;33.41;29.65
48041;BME280;33815;48.386;11.738;2023-07-09T09:57:54;96982.16;;;33.33;29.98
48041;BME280;33815;48.386;11.738;2023-07-09T10:00:23;96978.88;;;33.36;29.28
48041;BME280;33815;48.386;11.738;2023-07-09T10:02:50;96983.53;;;32.76;29.35
48041;BME280;33815;48.386;11.738;2023-07-09T10:05:16;96983.59;;;32.66;29.72
48041;BME280;33815;48.386;11.738;2023-07-09T10:07:55;96966.81;;;32.40;30.13
48041;BME280;33815;48.386;11.738;2023-07-09T10:10:26;96975.72;;;32.75;30.31
48041;BME280;33815;48.386;11.738;2023-07-09T10:13:13;96981.34;;;32.44;30.18
48041;BME280;33815;48.386;11.738;2023-07-09T10:16:00;96962.38;;;32.54;30.30
48041;BME280;33815;48.386;11.738;2023-07-09T10:21:57;96969.88;;;33.64;29.70
48041;BME280;33815;48.386;11.738;2023-07-09T10:27:34;96961.47;;;34.28;27.64
48041;BME280;33815;48.386;11.738;2023-07-09T10:40:40;96975.56;;;33.87;28.36
48041;BME280;33815;48.386;11.738;2023-07-09T10:43:11;96972.09;;;33.62;27.88
48041;BME280;33815;48.386;11.738;2023-07-09T10:45:42;96965.31;;;33.41;28.06
48041;BME280;33815;48.386;11.738;2023-07-09T10:48:16;96963.03;;;33.29;27.75
48041;BME280;33815;48.386;11.738;2023-07-09T10:50:49;96966.59;;;33.24;28.05
48041;BME280;33815;48.386;11.738;2023-07-09T10:53:45;96959.56;;;33.67;26.77
48041;BME280;33815;48.386;11.738;2023-07-09T10:56:15;96965.41;;;33.98;27.10
48041;BME280;33815;48.386;11.738;2023-07-09T10:58:50;96964.88;;;34.15;27.47
48041;BME280;33815;48.386;11.738;2023-07-09T11:01:19;96973.03;;;34.48;27.72
48041;BME280;33815;48.386;11.738;2023-07-09T11:03:51;96958.84;;;34.89;25.80
48041;BME280;33815;48.386;11.738;2023-07-09T11:06:22;96952.44;;;34.99;25.37
48041;BME280;33815;48.386;11.738;2023-07-09T11:08:52;96954.59;;;34.83;25.23
48041;BME280;33815;48.386;11.738;2023-07-09T11:11:42;96949.09;;;34.88;24.91
48041;BME280;33815;48.386;11.738;2023-07-09T11:14:37;96951.22;;;35.05;25.01
48041;BME280;33815;48.386;11.738;2023-07-09T11:17:13;96946.78;;;34.95;25.36
48041;BME280;33815;48.386;11.738;2023-07-09T11:19:44;96925.34;;;34.99;25.46
48041;BME280;33815;48.386;11.738;2023-07-09T11:24:46;96917.03;;;35.74;24.84
48041;BME280;33815;48.386;11.738;2023-07-09T11:29:48;96943.56;;;36.81;24.50
48041;BME280;33815;48.386;11.738;2023-07-09T11:32:22;96939.31;;;36.44;24.41
48041;BME280;33815;48.386;11.738;2023-07-09T11:34:47;96942.19;;;36.25;26.52
48041;BME280;33815;48.386;11.738;2023-07-09T11:37:14;96949.47;;;36.61;26.08
48041;BME280;33815;48.386;11.738;2023-07-09T11:44:58;96911.19;;;37.02;23.94
48041;BME280;33815;48.386;11.738;2023-07-09T11:47:29;96929.84;;;37.35;23.81
48041;BME280;33815;48.386;11.738;2023-07-09T11:50:05;96923.78;;;37.39;23.93
48041;BME280;33815;48.386;11.738;2023-07-09T11:52:43;96924.97;;;37.64;24.29
48041;BME280;33815;48.386;11.738;2023-07-09T11:55:39;96917.72;;;37.33;23.76
48041;BME280;33815;48.386;11.738;2023-07-09T11:58:12;96917.53;;;37.38;22.88
48041;BME280;33815;48.386;11.738;2023-07-09T12:03:06;96914.25;;;37.76;23.04
48041;BME280;33815;48.386;11.738;2023-07-09T12:05:32;96915.56;;;37.96;24.05
48041;BME280;33815;48.386;11.738;2023-07-09T12:07:58;96905.78;;;37.95;23.87
48041;BME280;33815;48.386;11.738;2023-07-09T12:10:27;96927.06;;;38.11;22.47
48041;BME280;33815;48.386;11.738;2023-07-09T12:12:55;96908.97;;;37.88;23.14
48041;BME280;33815;48.386;11.738;2023-07-09T12:15:23;96910.72;;;38.28;23.21
48041;BME280;33815;48.386;11.738;2023-07-09T12:17:54;96911.34;;;38.43;22.15
48041;BME280;33815;48.386;11.738;2023-07-09T12:20:20;96906.53;;;37.52;24.34
48041;BME280;33815;48.386;11.738;2023-07-09T12:22:46;96879.03;;;37.62;23.78
48041;BME280;33815;48.386;11.738;2023-07-09T12:25:20;96904.66;;;37.87;23.26
48041;BME280;33815;48.386;11.738;2023-07-09T12:27:46;96903.00;;;38.48;24.49
48041;BME280;33815;48.386;11.738;2023-07-09T12:30:12;96895.16;;;38.46;22.95
48041;BME280;33815;48.386;11.738;2023-07-09T12:32:48;96895.44;;;38.62;22.27
48041;BME280;33815;48.386;11.738;2023-07-09T12:35:20;96894.34;;;38.46;21.51
48041;BME280;33815;48.386;11.738;2023-07-09T12:37:47;96892.97;;;38.13;22.25
48041;BME280;33815;48.386;11.738;2023-07-09T12:40:23;96879.53;;;37.99;21.23
48041;BME280;33815;48.386;11.738;2023-07-09T12:42:52;96875.81;;;38.13;21.77
48041;BME280;33815;48.386;11.738;2023-07-09T12:45:19;96871.19;;;38.22;21.58
48041;BME280;33815;48.386;11.738;2023-07-09T12:47:46;96874.22;;;38.20;20.46
48041;BME280;33815;48.386;11.738;2023-07-09T12:50:29;96877.25;;;38.28;20.99
48041;BME280;33815;48.386;11.738;2023-07-09T12:52:59;96859.03;;;38.76;21.35
48041;BME280;33815;48.386;11.738;2023-07-09T12:55:26;96871.91;;;38.96;21.14
48041;BME280;33815;48.386;11.738;2023-07-09T12:57:55;96877.22;;;38.45;21.15
48041;BME280;33815;48.386;11.738;2023-07-09T13:00:21;96869.94;;;38.02;21.60
48041;BME280;33815;48.386;11.738;2023-07-09T13:02:54;96880.19;;;37.96;23.26
48041;BME280;33815;48.386;11.738;2023-07-09T13:05:21;96871.81;;;38.28;21.04
48041;BME280;33815;48.386;11.738;2023-07-09T13:07:52;96873.13;;;38.21;20.57
48041;BME280;33815;48.386;11.738;2023-07-09T13:10:22;96871.13;;;38.48;21.32
48041;BME280;33815;48.386;11.738;2023-07-09T13:12:52;96868.84;;;38.68;21.14
48041;BME280;33815;48.386;11.738;2023-07-09T13:15:24;96864.44;;;38.84;21.03
48041;BME280;33815;48.386;11.738;2023-07-09T13:17:56;96860.81;;;38.71;19.52
48041;BME280;33815;48.386;11.738;2023-07-09T13:20:22;96862.03;;;38.83;19.87
48041;BME280;33815;48.386;11.738;2023-07-09T13:22:47;96857.72;;;38.82;20.37
48041;BME280;33815;48.386;11.738;2023-07-09T13:25:12;96856.16;;;39.02;19.72
48041;BME280;33815;48.386;11.738;2023-07-09T13:27:37;96853.25;;;39.07;19.49